Brownsville, TN

12:39 AM CST en Noviembre 24, 2014 (GMT -0600)
Crossroads Community | Change Station
CLOSE
Current Station
Estación meteorológica personal
Location: Bells, TN
Altura: 367 ft
Estaciones meteorológicas cercanas
Aviso en curso: Wind Advisory

Alt 367 ft 35.74 °N, 89.12 °W | Updated 14 minutes ago

Despejado
Despejado
61.2 ° F
Sensación térmica 61.2 ° F
N
2.7
Viento Variable Viento desde Este

Hoy
Alta -- | Baja -- ° F
--% Posibilidad de precipitaciones
Ayer
Alta -- | Baja -- ° F
Precip. -- pul
6:41 AM 4:45 PM
Creciente, 4% visible
Presión 29.35 pul
Visibilidad 10.0 Millas
Nubes Despejado
Punto de rocío 58 ° F
Humedad 88%
Precipitaciones 0.00 pul
Espesor de la nieve No disponible.
UV 0 de una escala de 12
Polen .30 de una escala de 12
Calidad del aire No disponible.
Flu Activity No disponible.
METAR KHKA 240553Z AUTO 20020G29KT 10SM CLR 19/14 A2936 RMK AO2 PK WND 20030/0543 SLP938 T01940144 10206 20172 402060156 58016 $

More Conditions Fewer Conditions

Presión 29.35 pul
Visibilidad 10.0 Millas
Nubes Despejado
Punto de rocío 58 ° F
Humedad 88%
Precipitaciones 0.00 pul
Espesor de la nieve No disponible.
UV 0 de una escala de 12
Polen .30 de una escala de 12
Calidad del aire No disponible.
Flu Activity No disponible.
METAR KHKA 240553Z AUTO 20020G29KT 10SM CLR 19/14 A2936 RMK AO2 PK WND 20030/0543 SLP938 T01940144 10206 20172 402060156 58016 $

More Conditions Fewer Conditions

10-Day Weather Forecast

Almanac

Astronomía

Nov. 24, 2014 Salida Puesta
Hora real
Crepúsculo civil
Crepúsculo náutico
Crepúsculo astronómico
Luna
Horas de luz
Horas de luz
Tomorrow will be .
, % of the Moon is Illuminated

Extremos de hoy

Máximos del estado Bajos del estado

Community

WunderPhotos

Upload Photos

1,773,286 ¡fotos cargadas!

WunderBlogs® & News

Nearby

Calidad del aire

  Calidad del aire Índice AQ Contaminante
Not available.

Grosos de nieve

Estación Profundido Altura

Actividad de terremotos

Ciudad Distance Mag. Tiempo y dato
Magnitud mínima muestra es 2,5.

Temperaturas de aguas costeras

Lugar Temperatura

Estaciones meteorológicas cercanas